sensor_id;sensor_type;location;lat;lon;timestamp;pressure;altitude;pressure_sealevel;temperature;humidity
39739;BME280;25422;48.286;8.484;2023-03-18T00:00:39;93675.91;;;4.86;100.00
39739;BME280;25422;48.286;8.484;2023-03-18T00:03:05;93681.56;;;5.00;100.00
39739;BME280;25422;48.286;8.484;2023-03-18T00:05:31;93673.03;;;5.07;100.00
39739;BME280;25422;48.286;8.484;2023-03-18T00:07:59;93675.47;;;5.27;100.00
39739;BME280;25422;48.286;8.484;2023-03-18T00:10:24;93667.91;;;5.34;100.00
39739;BME280;25422;48.286;8.484;2023-03-18T00:12:50;93676.38;;;5.36;100.00
39739;BME280;25422;48.286;8.484;2023-03-18T00:15:18;93674.53;;;5.72;100.00
39739;BME280;25422;48.286;8.484;2023-03-18T00:17:44;93678.97;;;5.88;100.00
39739;BME280;25422;48.286;8.484;2023-03-18T00:20:10;93669.75;;;6.63;100.00
39739;BME280;25422;48.286;8.484;2023-03-18T00:22:38;93669.56;;;7.32;92.19
39739;BME280;25422;48.286;8.484;2023-03-18T00:25:06;93676.06;;;7.86;83.96
39739;BME280;25422;48.286;8.484;2023-03-18T00:27:32;93680.59;;;7.92;84.14
39739;BME280;25422;48.286;8.484;2023-03-18T00:29:58;93681.69;;;8.22;76.94
39739;BME280;25422;48.286;8.484;2023-03-18T00:32:26;93686.56;;;8.25;77.22
39739;BME280;25422;48.286;8.484;2023-03-18T00:34:54;93683.25;;;8.40;73.88
39739;BME280;25422;48.286;8.484;2023-03-18T00:37:21;93689.28;;;8.49;72.67
39739;BME280;25422;48.286;8.484;2023-03-18T00:40:09;93688.75;;;8.62;70.87
39739;BME280;25422;48.286;8.484;2023-03-18T00:42:42;93686.59;;;8.65;70.59
39739;BME280;25422;48.286;8.484;2023-03-18T00:45:13;93695.44;;;8.64;69.85
39739;BME280;25422;48.286;8.484;2023-03-18T00:47:41;93697.66;;;8.75;67.30
39739;BME280;25422;48.286;8.484;2023-03-18T00:50:07;93689.47;;;8.78;67.42
39739;BME280;25422;48.286;8.484;2023-03-18T00:52:33;93692.78;;;8.72;68.25
39739;BME280;25422;48.286;8.484;2023-03-18T00:54:59;93694.91;;;8.69;69.63
39739;BME280;25422;48.286;8.484;2023-03-18T00:57:27;93696.06;;;8.66;68.43
39739;BME280;25422;48.286;8.484;2023-03-18T00:59:54;93691.53;;;8.52;71.19
39739;BME280;25422;48.286;8.484;2023-03-18T01:02:19;93679.97;;;8.54;71.82
39739;BME280;25422;48.286;8.484;2023-03-18T01:04:45;93679.94;;;8.63;69.57
39739;BME280;25422;48.286;8.484;2023-03-18T01:07:11;93683.44;;;8.47;69.78
39739;BME280;25422;48.286;8.484;2023-03-18T01:09:37;93680.66;;;8.48;68.82
39739;BME280;25422;48.286;8.484;2023-03-18T01:12:07;93676.25;;;8.49;68.96
39739;BME280;25422;48.286;8.484;2023-03-18T01:14:33;93677.72;;;8.43;67.87
39739;BME280;25422;48.286;8.484;2023-03-18T01:16:58;93667.13;;;8.36;68.22
39739;BME280;25422;48.286;8.484;2023-03-18T01:19:24;93668.78;;;8.46;67.32
39739;BME280;25422;48.286;8.484;2023-03-18T01:21:51;93660.06;;;8.62;64.77
39739;BME280;25422;48.286;8.484;2023-03-18T01:24:16;93671.31;;;8.62;64.43
39739;BME280;25422;48.286;8.484;2023-03-18T01:26:42;93658.94;;;8.56;66.71
39739;BME280;25422;48.286;8.484;2023-03-18T01:29:08;93665.69;;;8.34;69.39
39739;BME280;25422;48.286;8.484;2023-03-18T01:31:34;93664.91;;;8.25;68.29
39739;BME280;25422;48.286;8.484;2023-03-18T01:34:05;93652.19;;;8.22;70.79
39739;BME280;25422;48.286;8.484;2023-03-18T01:36:41;93650.28;;;8.16;71.50
39739;BME280;25422;48.286;8.484;2023-03-18T01:39:08;93654.81;;;8.14;73.53
39739;BME280;25422;48.286;8.484;2023-03-18T01:41:35;93651.28;;;7.98;75.17
39739;BME280;25422;48.286;8.484;2023-03-18T01:44:01;93663.03;;;7.94;76.52
39739;BME280;25422;48.286;8.484;2023-03-18T01:46:45;93668.22;;;7.94;72.54
39739;BME280;25422;48.286;8.484;2023-03-18T01:49:25;93673.28;;;7.96;68.87
39739;BME280;25422;48.286;8.484;2023-03-18T01:52:16;93669.88;;;7.95;67.94
39739;BME280;25422;48.286;8.484;2023-03-18T01:54:51;93667.06;;;8.05;67.53
39739;BME280;25422;48.286;8.484;2023-03-18T01:57:20;93662.88;;;7.87;70.48
39739;BME280;25422;48.286;8.484;2023-03-18T01:59:49;93675.41;;;7.84;69.02
39739;BME280;25422;48.286;8.484;2023-03-18T02:02:16;93667.28;;;7.87;68.44
39739;BME280;25422;48.286;8.484;2023-03-18T02:04:46;93662.69;;;7.89;68.32
39739;BME280;25422;48.286;8.484;2023-03-18T02:07:25;93645.91;;;8.00;68.09
39739;BME280;25422;48.286;8.484;2023-03-18T02:09:54;93668.22;;;7.94;70.49
39739;BME280;25422;48.286;8.484;2023-03-18T02:12:24;93678.50;;;7.79;71.35
39739;BME280;25422;48.286;8.484;2023-03-18T02:14:54;93672.19;;;7.65;70.68
39739;BME280;25422;48.286;8.484;2023-03-18T02:17:25;93670.56;;;7.64;71.81
39739;BME280;25422;48.286;8.484;2023-03-18T02:22:43;93680.31;;;7.37;75.44
39739;BME280;25422;48.286;8.484;2023-03-18T02:25:18;93674.94;;;7.22;75.91
39739;BME280;25422;48.286;8.484;2023-03-18T02:27:56;93677.69;;;7.21;76.34
39739;BME280;25422;48.286;8.484;2023-03-18T02:30:30;93680.13;;;7.06;79.65
39739;BME280;25422;48.286;8.484;2023-03-18T02:32:59;93681.06;;;6.97;81.98
39739;BME280;25422;48.286;8.484;2023-03-18T02:35:27;93677.31;;;6.83;82.51
39739;BME280;25422;48.286;8.484;2023-03-18T02:37:55;93673.19;;;6.64;88.04
39739;BME280;25422;48.286;8.484;2023-03-18T02:40:27;93681.25;;;6.52;87.92
39739;BME280;25422;48.286;8.484;2023-03-18T02:42:54;93680.09;;;6.47;91.51
39739;BME280;25422;48.286;8.484;2023-03-18T02:45:39;93680.56;;;6.34;92.58
39739;BME280;25422;48.286;8.484;2023-03-18T02:48:14;93689.81;;;6.36;88.56
39739;BME280;25422;48.286;8.484;2023-03-18T02:50:41;93684.72;;;6.27;93.34
39739;BME280;25422;48.286;8.484;2023-03-18T02:53:11;93683.72;;;6.19;94.47
39739;BME280;25422;48.286;8.484;2023-03-18T02:55:36;93692.19;;;6.21;96.41
39739;BME280;25422;48.286;8.484;2023-03-18T02:58:02;93685.28;;;6.04;98.99
39739;BME280;25422;48.286;8.484;2023-03-18T03:00:27;93688.91;;;5.93;100.00
39739;BME280;25422;48.286;8.484;2023-03-18T03:02:53;93688.50;;;5.80;100.00
39739;BME280;25422;48.286;8.484;2023-03-18T03:05:18;93694.34;;;5.82;100.00
39739;BME280;25422;48.286;8.484;2023-03-18T03:07:45;93697.03;;;5.72;100.00
39739;BME280;25422;48.286;8.484;2023-03-18T03:10:11;93695.50;;;5.61;100.00
39739;BME280;25422;48.286;8.484;2023-03-18T03:12:38;93692.84;;;5.53;100.00
39739;BME280;25422;48.286;8.484;2023-03-18T03:15:05;93697.97;;;5.45;100.00
39739;BME280;25422;48.286;8.484;2023-03-18T03:17:33;93697.16;;;5.26;100.00
39739;BME280;25422;48.286;8.484;2023-03-18T03:20:00;93700.88;;;5.23;100.00
39739;BME280;25422;48.286;8.484;2023-03-18T03:22:26;93699.69;;;5.18;100.00
39739;BME280;25422;48.286;8.484;2023-03-18T03:24:52;93704.72;;;5.19;100.00
39739;BME280;25422;48.286;8.484;2023-03-18T03:27:18;93707.41;;;5.10;100.00
39739;BME280;25422;48.286;8.484;2023-03-18T03:29:44;93701.75;;;4.96;100.00
39739;BME280;25422;48.286;8.484;2023-03-18T03:32:12;93704.00;;;4.91;100.00
39739;BME280;25422;48.286;8.484;2023-03-18T03:34:37;93699.00;;;4.80;100.00
39739;BME280;25422;48.286;8.484;2023-03-18T03:37:03;93704.63;;;4.75;100.00
39739;BME280;25422;48.286;8.484;2023-03-18T03:39:28;93697.72;;;4.66;100.00
39739;BME280;25422;48.286;8.484;2023-03-18T03:41:54;93702.59;;;4.51;100.00
39739;BME280;25422;48.286;8.484;2023-03-18T03:44:19;93698.16;;;4.33;100.00
39739;BME280;25422;48.286;8.484;2023-03-18T03:46:47;93703.25;;;4.25;100.00
39739;BME280;25422;48.286;8.484;2023-03-18T03:49:13;93704.09;;;4.16;100.00
39739;BME280;25422;48.286;8.484;2023-03-18T03:51:39;93699.72;;;4.16;100.00
39739;BME280;25422;48.286;8.484;2023-03-18T03:54:04;93710.13;;;4.07;100.00
39739;BME280;25422;48.286;8.484;2023-03-18T03:56:30;93711.25;;;3.94;100.00
39739;BME280;25422;48.286;8.484;2023-03-18T03:58:56;93714.13;;;3.91;100.00
39739;BME280;25422;48.286;8.484;2023-03-18T04:01:27;93714.28;;;3.70;100.00
39739;BME280;25422;48.286;8.484;2023-03-18T04:03:54;93721.94;;;3.62;100.00
39739;BME280;25422;48.286;8.484;2023-03-18T04:06:20;93714.47;;;3.59;100.00
39739;BME280;25422;48.286;8.484;2023-03-18T04:08:54;93711.19;;;3.57;100.00
39739;BME280;25422;48.286;8.484;2023-03-18T04:11:20;93715.00;;;3.62;100.00
39739;BME280;25422;48.286;8.484;2023-03-18T04:13:46;93715.97;;;3.51;100.00
39739;BME280;25422;48.286;8.484;2023-03-18T04:16:12;93709.56;;;3.46;100.00
39739;BME280;25422;48.286;8.484;2023-03-18T04:18:39;93714.34;;;3.41;100.00
39739;BME280;25422;48.286;8.484;2023-03-18T04:21:05;93717.75;;;3.41;100.00
39739;BME280;25422;48.286;8.484;2023-03-18T04:23:41;93714.72;;;3.46;100.00
39739;BME280;25422;48.286;8.484;2023-03-18T04:26:07;93719.09;;;3.45;100.00
39739;BME280;25422;48.286;8.484;2023-03-18T04:28:33;93712.84;;;3.48;100.00
39739;BME280;25422;48.286;8.484;2023-03-18T04:31:00;93715.84;;;3.43;100.00
39739;BME280;25422;48.286;8.484;2023-03-18T04:33:25;93716.53;;;3.35;100.00
39739;BME280;25422;48.286;8.484;2023-03-18T04:35:52;93718.97;;;3.27;100.00
39739;BME280;25422;48.286;8.484;2023-03-18T04:38:18;93716.78;;;3.23;100.00
39739;BME280;25422;48.286;8.484;2023-03-18T04:40:46;93712.44;;;3.03;100.00
39739;BME280;25422;48.286;8.484;2023-03-18T04:43:11;93720.75;;;2.97;100.00
39739;BME280;25422;48.286;8.484;2023-03-18T04:45:37;93715.94;;;2.83;100.00
39739;BME280;25422;48.286;8.484;2023-03-18T04:48:03;93725.44;;;2.73;100.00
39739;BME280;25422;48.286;8.484;2023-03-18T04:50:33;93729.50;;;2.65;100.00
39739;BME280;25422;48.286;8.484;2023-03-18T04:53:00;93721.34;;;2.60;100.00
39739;BME280;25422;48.286;8.484;2023-03-18T04:55:28;93721.09;;;2.63;100.00
39739;BME280;25422;48.286;8.484;2023-03-18T04:57:54;93720.25;;;2.63;100.00
39739;BME280;25422;48.286;8.484;2023-03-18T05:00:23;93726.91;;;2.56;100.00
39739;BME280;25422;48.286;8.484;2023-03-18T05:02:55;93718.88;;;2.49;100.00
39739;BME280;25422;48.286;8.484;2023-03-18T05:05:23;93723.22;;;2.48;100.00
39739;BME280;25422;48.286;8.484;2023-03-18T05:07:50;93716.81;;;2.43;100.00
39739;BME280;25422;48.286;8.484;2023-03-18T05:10:18;93712.47;;;2.43;100.00
39739;BME280;25422;48.286;8.484;2023-03-18T05:12:44;93705.66;;;2.42;100.00
39739;BME280;25422;48.286;8.484;2023-03-18T05:15:12;93709.88;;;2.33;100.00
39739;BME280;25422;48.286;8.484;2023-03-18T05:17:43;93716.44;;;2.16;100.00
39739;BME280;25422;48.286;8.484;2023-03-18T05:20:09;93719.00;;;2.07;100.00
39739;BME280;25422;48.286;8.484;2023-03-18T05:22:35;93729.81;;;2.00;100.00
39739;BME280;25422;48.286;8.484;2023-03-18T05:25:11;93727.34;;;1.89;100.00
39739;BME280;25422;48.286;8.484;2023-03-18T05:27:39;93726.31;;;1.80;100.00
39739;BME280;25422;48.286;8.484;2023-03-18T05:30:11;93725.50;;;1.80;100.00
39739;BME280;25422;48.286;8.484;2023-03-18T05:32:42;93715.03;;;1.72;100.00
39739;BME280;25422;48.286;8.484;2023-03-18T05:35:09;93720.44;;;1.68;100.00
39739;BME280;25422;48.286;8.484;2023-03-18T05:37:43;93718.84;;;1.77;100.00
39739;BME280;25422;48.286;8.484;2023-03-18T05:40:08;93720.09;;;1.83;100.00
39739;BME280;25422;48.286;8.484;2023-03-18T05:42:37;93722.19;;;1.89;100.00
39739;BME280;25422;48.286;8.484;2023-03-18T05:45:05;93723.84;;;2.00;100.00
39739;BME280;25422;48.286;8.484;2023-03-18T05:47:35;93724.66;;;2.00;100.00
39739;BME280;25422;48.286;8.484;2023-03-18T05:50:09;93726.31;;;2.01;100.00
39739;BME280;25422;48.286;8.484;2023-03-18T05:52:36;93724.13;;;1.97;100.00
39739;BME280;25422;48.286;8.484;2023-03-18T05:55:06;93726.31;;;2.01;100.00
39739;BME280;25422;48.286;8.484;2023-03-18T05:57:35;93725.09;;;2.06;100.00
39739;BME280;25422;48.286;8.484;2023-03-18T06:00:04;93729.22;;;2.18;100.00
39739;BME280;25422;48.286;8.484;2023-03-18T06:02:40;93723.56;;;2.24;100.00
39739;BME280;25422;48.286;8.484;2023-03-18T06:05:07;93731.72;;;2.29;100.00
39739;BME280;25422;48.286;8.484;2023-03-18T06:07:32;93728.88;;;2.32;100.00
39739;BME280;25422;48.286;8.484;2023-03-18T06:09:58;93728.09;;;2.42;100.00
39739;BME280;25422;48.286;8.484;2023-03-18T06:12:24;93732.19;;;2.44;100.00
39739;BME280;25422;48.286;8.484;2023-03-18T06:14:52;93735.22;;;2.59;100.00
39739;BME280;25422;48.286;8.484;2023-03-18T06:17:19;93739.34;;;2.81;100.00
39739;BME280;25422;48.286;8.484;2023-03-18T06:19:44;93734.59;;;2.86;100.00
39739;BME280;25422;48.286;8.484;2023-03-18T06:22:10;93739.47;;;2.80;100.00
39739;BME280;25422;48.286;8.484;2023-03-18T06:24:37;93740.16;;;2.82;100.00
39739;BME280;25422;48.286;8.484;2023-03-18T06:27:03;93745.72;;;2.77;100.00
39739;BME280;25422;48.286;8.484;2023-03-18T06:29:28;93748.03;;;2.80;100.00
39739;BME280;25422;48.286;8.484;2023-03-18T06:31:59;93739.22;;;2.93;100.00
39739;BME280;25422;48.286;8.484;2023-03-18T06:34:26;93749.72;;;3.30;100.00
39739;BME280;25422;48.286;8.484;2023-03-18T06:36:53;93741.53;;;3.74;100.00
39739;BME280;25422;48.286;8.484;2023-03-18T06:39:18;93738.09;;;3.93;100.00
39739;BME280;25422;48.286;8.484;2023-03-18T06:41:45;93746.06;;;4.19;100.00
39739;BME280;25422;48.286;8.484;2023-03-18T06:44:28;93736.47;;;4.85;100.00
39739;BME280;25422;48.286;8.484;2023-03-18T06:46:59;93738.69;;;5.44;100.00
39739;BME280;25422;48.286;8.484;2023-03-18T06:49:26;93733.78;;;6.30;100.00
39739;BME280;25422;48.286;8.484;2023-03-18T06:52:00;93739.53;;;7.43;100.00
39739;BME280;25422;48.286;8.484;2023-03-18T06:54:27;93731.66;;;8.42;99.27
39739;BME280;25422;48.286;8.484;2023-03-18T06:56:53;93732.75;;;9.27;84.38
39739;BME280;25422;48.286;8.484;2023-03-18T06:59:20;93737.19;;;9.50;77.94
39739;BME280;25422;48.286;8.484;2023-03-18T07:01:48;93727.81;;;10.02;76.76
39739;BME280;25422;48.286;8.484;2023-03-18T07:04:17;93736.03;;;10.67;67.08
39739;BME280;25422;48.286;8.484;2023-03-18T07:06:42;93732.66;;;11.03;66.65
39739;BME280;25422;48.286;8.484;2023-03-18T07:09:07;93731.16;;;10.49;69.44
39739;BME280;25422;48.286;8.484;2023-03-18T07:11:35;93724.81;;;11.40;67.68
39739;BME280;25422;48.286;8.484;2023-03-18T07:14:08;93731.72;;;11.69;68.00
39739;BME280;25422;48.286;8.484;2023-03-18T07:16:34;93742.63;;;12.66;65.18
39739;BME280;25422;48.286;8.484;2023-03-18T07:19:01;93733.47;;;12.90;60.32
39739;BME280;25422;48.286;8.484;2023-03-18T07:21:29;93740.25;;;13.81;60.44
39739;BME280;25422;48.286;8.484;2023-03-18T07:23:54;93745.50;;;14.82;54.64
39739;BME280;25422;48.286;8.484;2023-03-18T07:26:20;93742.06;;;15.79;51.59
39739;BME280;25422;48.286;8.484;2023-03-18T07:28:46;93746.63;;;16.54;47.32
39739;BME280;25422;48.286;8.484;2023-03-18T07:31:11;93734.66;;;17.14;42.73
39739;BME280;25422;48.286;8.484;2023-03-18T07:33:37;93746.78;;;16.34;45.52
39739;BME280;25422;48.286;8.484;2023-03-18T07:36:02;93745.06;;;16.21;43.36
39739;BME280;25422;48.286;8.484;2023-03-18T07:38:28;93751.41;;;17.08;42.21
39739;BME280;25422;48.286;8.484;2023-03-18T07:40:54;93744.44;;;18.11;40.38
39739;BME280;25422;48.286;8.484;2023-03-18T07:43:20;93746.72;;;17.89;38.47
39739;BME280;25422;48.286;8.484;2023-03-18T07:45:46;93760.72;;;18.62;36.23
39739;BME280;25422;48.286;8.484;2023-03-18T07:48:12;93750.84;;;20.15;34.47
39739;BME280;25422;48.286;8.484;2023-03-18T07:50:38;93746.88;;;19.72;33.31
39739;BME280;25422;48.286;8.484;2023-03-18T07:53:05;93746.84;;;20.98;30.73
39739;BME280;25422;48.286;8.484;2023-03-18T07:55:30;93741.22;;;20.09;29.88
39739;BME280;25422;48.286;8.484;2023-03-18T07:57:56;93750.09;;;20.49;31.43
39739;BME280;25422;48.286;8.484;2023-03-18T08:00:23;93751.66;;;21.18;28.95
39739;BME280;25422;48.286;8.484;2023-03-18T08:02:48;93741.88;;;21.01;28.39
39739;BME280;25422;48.286;8.484;2023-03-18T08:05:13;93736.22;;;20.81;28.10
39739;BME280;25422;48.286;8.484;2023-03-18T08:07:40;93746.25;;;21.13;28.71
39739;BME280;25422;48.286;8.484;2023-03-18T08:10:06;93735.66;;;21.57;26.41
39739;BME280;25422;48.286;8.484;2023-03-18T08:12:33;93744.00;;;21.66;26.13
39739;BME280;25422;48.286;8.484;2023-03-18T08:14:58;93747.63;;;21.15;26.07
39739;BME280;25422;48.286;8.484;2023-03-18T08:17:24;93744.22;;;21.20;26.31
39739;BME280;25422;48.286;8.484;2023-03-18T08:19:49;93746.47;;;21.72;26.08
39739;BME280;25422;48.286;8.484;2023-03-18T08:22:15;93752.28;;;21.47;27.06
39739;BME280;25422;48.286;8.484;2023-03-18T08:24:40;93744.88;;;21.71;24.18
39739;BME280;25422;48.286;8.484;2023-03-18T08:27:07;93744.03;;;22.85;22.96
39739;BME280;25422;48.286;8.484;2023-03-18T08:29:33;93741.16;;;22.54;23.09
39739;BME280;25422;48.286;8.484;2023-03-18T08:31:59;93739.00;;;22.24;24.43
39739;BME280;25422;48.286;8.484;2023-03-18T08:34:25;93750.44;;;20.86;26.11
39739;BME280;25422;48.286;8.484;2023-03-18T08:36:50;93741.66;;;19.48;27.35
39739;BME280;25422;48.286;8.484;2023-03-18T08:39:16;93735.94;;;19.68;27.96
39739;BME280;25422;48.286;8.484;2023-03-18T08:41:41;93737.00;;;21.15;26.48
39739;BME280;25422;48.286;8.484;2023-03-18T08:44:07;93729.47;;;22.01;24.09
39739;BME280;25422;48.286;8.484;2023-03-18T08:46:35;93731.03;;;22.56;23.49
39739;BME280;25422;48.286;8.484;2023-03-18T08:49:01;93740.88;;;21.08;26.00
39739;BME280;25422;48.286;8.484;2023-03-18T08:51:27;93733.69;;;21.97;24.72
39739;BME280;25422;48.286;8.484;2023-03-18T08:53:53;93742.78;;;22.01;25.52
39739;BME280;25422;48.286;8.484;2023-03-18T08:56:19;93730.00;;;21.76;23.72
39739;BME280;25422;48.286;8.484;2023-03-18T08:58:45;93734.25;;;22.26;24.47
39739;BME280;25422;48.286;8.484;2023-03-18T09:01:11;93736.91;;;22.53;24.09
39739;BME280;25422;48.286;8.484;2023-03-18T09:03:36;93739.94;;;20.63;25.40
39739;BME280;25422;48.286;8.484;2023-03-18T09:06:02;93735.50;;;21.91;24.61
39739;BME280;25422;48.286;8.484;2023-03-18T09:08:27;93734.78;;;20.90;24.82
39739;BME280;25422;48.286;8.484;2023-03-18T09:10:55;93730.28;;;20.57;25.36
39739;BME280;25422;48.286;8.484;2023-03-18T09:13:21;93730.22;;;19.48;27.09
39739;BME280;25422;48.286;8.484;2023-03-18T09:15:47;93735.97;;;19.04;26.45
39739;BME280;25422;48.286;8.484;2023-03-18T09:18:14;93730.91;;;20.98;24.40
39739;BME280;25422;48.286;8.484;2023-03-18T09:20:41;93736.47;;;20.45;25.65
39739;BME280;25422;48.286;8.484;2023-03-18T09:23:08;93727.34;;;21.31;25.98
39739;BME280;25422;48.286;8.484;2023-03-18T09:25:34;93721.09;;;21.43;25.03
39739;BME280;25422;48.286;8.484;2023-03-18T09:27:59;93724.16;;;20.56;25.42
39739;BME280;25422;48.286;8.484;2023-03-18T09:30:25;93722.44;;;19.99;26.97
39739;BME280;25422;48.286;8.484;2023-03-18T09:32:52;93731.63;;;19.79;27.82
39739;BME280;25422;48.286;8.484;2023-03-18T09:35:18;93721.91;;;20.82;24.82
39739;BME280;25422;48.286;8.484;2023-03-18T09:37:44;93718.66;;;20.97;23.36
39739;BME280;25422;48.286;8.484;2023-03-18T09:40:25;93723.91;;;20.24;25.46
39739;BME280;25422;48.286;8.484;2023-03-18T09:48:41;93722.41;;;18.89;29.04
39739;BME280;25422;48.286;8.484;2023-03-18T09:51:32;93725.09;;;17.50;30.51
39739;BME280;25422;48.286;8.484;2023-03-18T09:54:07;93722.53;;;18.04;31.09
39739;BME280;25422;48.286;8.484;2023-03-18T09:56:34;93721.06;;;17.78;28.25
39739;BME280;25422;48.286;8.484;2023-03-18T10:01:39;93712.84;;;17.18;30.93
39739;BME280;25422;48.286;8.484;2023-03-18T10:04:18;93725.19;;;16.88;32.83
39739;BME280;25422;48.286;8.484;2023-03-18T10:06:47;93724.03;;;15.76;34.70
39739;BME280;25422;48.286;8.484;2023-03-18T10:11:50;93727.84;;;15.87;34.35
39739;BME280;25422;48.286;8.484;2023-03-18T10:14:25;93726.16;;;16.24;34.57
39739;BME280;25422;48.286;8.484;2023-03-18T10:17:00;93725.91;;;17.32;32.77
39739;BME280;25422;48.286;8.484;2023-03-18T10:19:29;93724.97;;;17.08;33.54
39739;BME280;25422;48.286;8.484;2023-03-18T10:24:49;93729.66;;;15.47;34.49
39739;BME280;25422;48.286;8.484;2023-03-18T10:31:08;93722.81;;;15.72;33.25
39739;BME280;25422;48.286;8.484;2023-03-18T10:33:49;93723.00;;;15.38;34.25
39739;BME280;25422;48.286;8.484;2023-03-18T10:36:23;93729.59;;;15.15;35.75
39739;BME280;25422;48.286;8.484;2023-03-18T10:38:53;93725.06;;;15.36;36.96
39739;BME280;25422;48.286;8.484;2023-03-18T10:41:31;93718.50;;;15.00;34.90
39739;BME280;25422;48.286;8.484;2023-03-18T10:44:02;93716.53;;;14.75;37.85
39739;BME280;25422;48.286;8.484;2023-03-18T10:46:28;93722.00;;;14.87;35.08
39739;BME280;25422;48.286;8.484;2023-03-18T10:49:15;93714.78;;;15.21;33.76
39739;BME280;25422;48.286;8.484;2023-03-18T10:51:54;93719.44;;;15.64;33.93
39739;BME280;25422;48.286;8.484;2023-03-18T10:54:31;93712.97;;;15.60;34.38
39739;BME280;25422;48.286;8.484;2023-03-18T10:56:59;93716.94;;;16.08;34.05
39739;BME280;25422;48.286;8.484;2023-03-18T10:59:27;93709.09;;;16.45;34.62
39739;BME280;25422;48.286;8.484;2023-03-18T11:02:00;93707.84;;;16.04;33.45
39739;BME280;25422;48.286;8.484;2023-03-18T11:04:27;93711.28;;;16.30;35.45
39739;BME280;25422;48.286;8.484;2023-03-18T11:07:00;93700.94;;;16.54;34.86
39739;BME280;25422;48.286;8.484;2023-03-18T11:09:34;93699.97;;;16.92;34.76
39739;BME280;25422;48.286;8.484;2023-03-18T11:12:06;93699.94;;;17.29;34.15
39739;BME280;25422;48.286;8.484;2023-03-18T11:14:32;93696.97;;;17.98;33.49
39739;BME280;25422;48.286;8.484;2023-03-18T11:17:21;93692.56;;;18.34;32.04
39739;BME280;25422;48.286;8.484;2023-03-18T11:22:26;93684.03;;;16.98;31.77
39739;BME280;25422;48.286;8.484;2023-03-18T11:25:14;93689.50;;;17.95;31.37
39739;BME280;25422;48.286;8.484;2023-03-18T11:27:41;93674.97;;;19.16;28.42
39739;BME280;25422;48.286;8.484;2023-03-18T11:30:17;93683.19;;;20.01;29.16
39739;BME280;25422;48.286;8.484;2023-03-18T11:35:56;93678.03;;;18.36;30.51
39739;BME280;25422;48.286;8.484;2023-03-18T11:38:32;93676.28;;;19.71;28.36
39739;BME280;25422;48.286;8.484;2023-03-18T11:41:08;93677.88;;;19.43;27.92
39739;BME280;25422;48.286;8.484;2023-03-18T11:43:35;93674.16;;;20.02;27.81
39739;BME280;25422;48.286;8.484;2023-03-18T11:46:08;93677.88;;;20.01;27.30
39739;BME280;25422;48.286;8.484;2023-03-18T11:48:37;93663.13;;;21.22;24.80
39739;BME280;25422;48.286;8.484;2023-03-18T11:56:54;93657.91;;;20.88;24.87
39739;BME280;25422;48.286;8.484;2023-03-18T11:59:39;93653.47;;;21.38;24.32
39739;BME280;25422;48.286;8.484;2023-03-18T12:02:29;93646.44;;;21.27;24.57
39739;BME280;25422;48.286;8.484;2023-03-18T12:08:21;93653.59;;;21.27;25.80
39739;BME280;25422;48.286;8.484;2023-03-18T12:13:54;93655.66;;;20.41;26.29
39739;BME280;25422;48.286;8.484;2023-03-18T12:16:47;93651.25;;;20.86;25.39
39739;BME280;25422;48.286;8.484;2023-03-18T12:19:44;93646.88;;;19.03;29.18
39739;BME280;25422;48.286;8.484;2023-03-18T12:25:19;93650.97;;;18.23;32.18
39739;BME280;25422;48.286;8.484;2023-03-18T12:28:01;93637.50;;;18.36;30.91
39739;BME280;25422;48.286;8.484;2023-03-18T12:33:33;93638.56;;;19.40;28.69
39739;BME280;25422;48.286;8.484;2023-03-18T12:46:51;93637.06;;;19.61;28.37
39739;BME280;25422;48.286;8.484;2023-03-18T12:49:24;93630.22;;;18.67;29.83
39739;BME280;25422;48.286;8.484;2023-03-18T12:51:59;93639.22;;;17.64;30.44
39739;BME280;25422;48.286;8.484;2023-03-18T12:54:35;93628.56;;;17.10;31.18
39739;BME280;25422;48.286;8.484;2023-03-18T12:57:09;93633.81;;;16.43;31.90
39739;BME280;25422;48.286;8.484;2023-03-18T12:59:59;93631.16;;;16.43;35.76
39739;BME280;25422;48.286;8.484;2023-03-18T13:05:15;93640.16;;;15.91;33.97
39739;BME280;25422;48.286;8.484;2023-03-18T13:08:36;93635.75;;;16.10;33.51
39739;BME280;25422;48.286;8.484;2023-03-18T13:10:35;93640.28;;;16.22;33.67
39739;BME280;25422;48.286;8.484;2023-03-18T13:13:06;93637.25;;;16.62;33.70
39739;BME280;25422;48.286;8.484;2023-03-18T13:15:37;93631.66;;;17.68;33.38
39739;BME280;25422;48.286;8.484;2023-03-18T13:18:23;93637.72;;;17.57;30.13
39739;BME280;25422;48.286;8.484;2023-03-18T13:20:53;93631.56;;;17.75;30.87
39739;BME280;25422;48.286;8.484;2023-03-18T13:42:28;93629.06;;;15.82;35.69
39739;BME280;25422;48.286;8.484;2023-03-18T13:47:35;93634.72;;;15.54;37.29
39739;BME280;25422;48.286;8.484;2023-03-18T13:52:45;93631.50;;;15.52;36.19
39739;BME280;25422;48.286;8.484;2023-03-18T13:55:33;93624.88;;;15.68;36.80
39739;BME280;25422;48.286;8.484;2023-03-18T14:00:44;93630.91;;;15.75;37.08
39739;BME280;25422;48.286;8.484;2023-03-18T14:14:00;93624.75;;;16.13;35.74
39739;BME280;25422;48.286;8.484;2023-03-18T14:16:29;93621.16;;;15.82;
39739;BME280;25422;48.286;8.484;2023-03-18T14:19:24;93622.22;;;15.68;36.05
39739;BME280;25422;48.286;8.484;2023-03-18T14:22:12;93614.19;;;15.63;37.19
39739;BME280;25422;48.286;8.484;2023-03-18T14:24:41;93616.13;;;15.42;38.12
39739;BME280;25422;48.286;8.484;2023-03-18T14:27:14;93617.56;;;15.38;38.23
39739;BME280;25422;48.286;8.484;2023-03-18T14:29:43;93615.75;;;15.39;37.79
39739;BME280;25422;48.286;8.484;2023-03-18T14:32:35;93613.50;;;15.42;37.51
39739;BME280;25422;48.286;8.484;2023-03-18T14:35:25;93617.06;;;15.23;37.27
39739;BME280;25422;48.286;8.484;2023-03-18T14:40:40;93615.78;;;14.93;38.48
39739;BME280;25422;48.286;8.484;2023-03-18T14:43:13;93603.81;;;14.97;38.02
39739;BME280;25422;48.286;8.484;2023-03-18T14:45:42;93615.97;;;15.37;37.50
39739;BME280;25422;48.286;8.484;2023-03-18T14:48:22;93606.53;;;15.55;37.81
39739;BME280;25422;48.286;8.484;2023-03-18T14:50:52;93615.06;;;15.50;36.87
39739;BME280;25422;48.286;8.484;2023-03-18T14:53:39;93609.59;;;15.20;37.44